createdAt,value
2017-09-17T00:00:47.067Z,99.99
2017-09-17T00:01:47.066Z,99.99
2017-09-17T00:02:47.111Z,99.99
2017-09-17T00:03:47.005Z,99.99
2017-09-17T00:04:47.107Z,99.99
2017-09-17T00:05:47.067Z,99.99
2017-09-17T00:06:47.033Z,99.99
2017-09-17T00:07:47.008Z,99.99
2017-09-17T00:08:47.068Z,99.99
2017-09-17T00:09:47.078Z,99.99
2017-09-17T00:10:47.009Z,99.99
2017-09-17T00:11:47.071Z,99.99
2017-09-17T00:12:47.036Z,99.99
2017-09-17T00:13:47.170Z,99.99
2017-09-17T00:14:47.072Z,99.99
2017-09-17T00:15:47.072Z,99.99
2017-09-17T00:16:47.072Z,99.99
2017-09-17T00:17:47.059Z,99.99
2017-09-17T00:18:47.080Z,99.99
2017-09-17T00:19:47.126Z,99.99
2017-09-17T00:20:47.103Z,99.99
2017-09-17T00:21:47.031Z,99.99
2017-09-17T00:22:47.124Z,99.99
2017-09-17T00:23:47.131Z,99.99
2017-09-17T00:24:47.240Z,99.99
2017-09-17T00:25:47.086Z,99.99
2017-09-17T00:26:47.132Z,99.99
2017-09-17T00:27:47.084Z,99.99
2017-09-17T00:28:47.175Z,99.99
2017-09-17T00:29:47.094Z,99.99
2017-09-17T00:30:47.084Z,99.99
2017-09-17T00:31:47.084Z,99.99
2017-09-17T00:32:47.154Z,99.99
2017-09-17T00:33:47.088Z,99.99
2017-09-17T00:34:47.093Z,99.99
2017-09-17T00:35:47.098Z,99.99
2017-09-17T00:36:47.085Z,99.99
2017-09-17T00:37:47.090Z,99.99
2017-09-17T00:38:47.092Z,99.99
2017-09-17T00:39:47.041Z,99.99
2017-09-17T00:40:47.093Z,99.99
2017-09-17T00:41:47.088Z,99.99
2017-09-17T00:42:47.155Z,99.99
2017-09-17T00:43:47.139Z,99.99
2017-09-17T00:44:47.266Z,99.99
2017-09-17T00:45:47.143Z,99.99
2017-09-17T00:46:47.144Z,99.99
2017-09-17T00:47:47.051Z,99.99
2017-09-17T00:48:47.148Z,99.99
2017-09-17T00:49:47.100Z,99.99
2017-09-17T00:50:47.100Z,99.99
2017-09-17T00:51:47.149Z,99.99
2017-09-17T00:52:47.106Z,99.99
2017-09-17T00:53:47.046Z,99.99
2017-09-17T00:54:47.168Z,99.99
2017-09-17T00:55:47.097Z,99.99
2017-09-17T00:56:47.169Z,99.99
2017-09-17T00:57:47.053Z,99.99
2017-09-17T00:58:47.180Z,99.99
2017-09-17T00:59:47.115Z,99.99
2017-09-17T01:00:47.099Z,99.99
2017-09-17T01:01:47.152Z,99.99
2017-09-17T01:02:47.054Z,99.99
2017-09-17T01:03:47.067Z,99.99
2017-09-17T01:04:47.100Z,99.99
2017-09-17T01:05:47.102Z,99.99
2017-09-17T01:06:47.076Z,99.99
2017-09-17T01:07:47.069Z,99.99
2017-09-17T01:08:47.069Z,99.99
2017-09-17T01:09:47.044Z,99.99
2017-09-17T01:10:47.074Z,99.99
2017-09-17T01:11:47.044Z,99.99
2017-09-17T01:12:47.119Z,99.99
2017-09-17T01:13:47.114Z,99.99
2017-09-17T01:14:47.166Z,99.99
2017-09-17T01:15:47.063Z,99.99
2017-09-17T01:16:47.115Z,99.99
2017-09-17T01:17:47.156Z,99.99
2017-09-17T01:18:47.160Z,99.99
2017-09-17T01:19:47.164Z,99.99
2017-09-17T01:20:47.095Z,99.99
2017-09-17T01:21:47.072Z,99.99
2017-09-17T01:22:47.158Z,99.99
2017-09-17T01:23:47.158Z,99.99
2017-09-17T01:24:47.163Z,99.99
2017-09-17T01:25:47.130Z,99.99
2017-09-17T01:26:47.130Z,99.99
2017-09-17T01:27:47.161Z,99.99
2017-09-17T01:28:47.121Z,99.99
2017-09-17T01:29:47.186Z,99.99
2017-09-17T01:30:47.173Z,99.99
2017-09-17T01:31:47.166Z,99.99
2017-09-17T01:32:47.169Z,99.99
2017-09-17T01:33:47.073Z,99.99
2017-09-17T01:34:47.047Z,99.99
2017-09-17T01:35:47.080Z,99.99
2017-09-17T01:36:47.048Z,99.99
2017-09-17T01:37:47.073Z,99.99
2017-09-17T01:38:47.051Z,99.99
2017-09-17T01:39:47.090Z,99.99
2017-09-17T01:40:47.061Z,99.99
2017-09-17T01:41:47.060Z,99.99
2017-09-17T01:42:47.062Z,99.99
2017-09-17T01:43:47.106Z,99.99
2017-09-17T01:44:47.069Z,99.99
2017-09-17T01:45:47.162Z,99.99
2017-09-17T01:46:47.137Z,99.99
2017-09-17T01:47:47.177Z,99.99
2017-09-17T01:48:47.103Z,99.99
2017-09-17T01:49:47.076Z,99.99
2017-09-17T01:50:47.105Z,99.99
2017-09-17T01:51:47.144Z,99.99
2017-09-17T01:52:47.108Z,99.99
2017-09-17T01:53:47.080Z,99.99
2017-09-17T01:54:47.130Z,99.99
2017-09-17T01:55:47.172Z,99.99
2017-09-17T01:56:47.147Z,99.99
2017-09-17T01:57:47.145Z,99.99
2017-09-17T01:58:47.112Z,99.99
2017-09-17T01:59:47.132Z,99.99
2017-09-17T02:00:47.091Z,99.99
2017-09-17T02:01:47.091Z,99.99
2017-09-17T02:02:47.115Z,99.99
2017-09-17T02:03:47.121Z,99.99
2017-09-17T02:04:47.093Z,99.99
2017-09-17T02:05:47.184Z,99.99
2017-09-17T02:06:47.162Z,99.99
2017-09-17T02:07:47.121Z,99.99
2017-09-17T02:08:47.161Z,99.99
2017-09-17T02:09:47.186Z,99.99
2017-09-17T02:10:47.097Z,99.99
2017-09-17T02:11:47.211Z,99.99
2017-09-17T02:12:47.093Z,99.99
2017-09-17T02:13:47.194Z,99.99
2017-09-17T02:14:47.194Z,99.99
2017-09-17T02:15:47.199Z,99.99
2017-09-17T02:16:47.147Z,99.99
2017-09-17T02:17:47.147Z,99.99
2017-09-17T02:18:47.151Z,99.99
2017-09-17T02:19:47.198Z,99.99
2017-09-17T02:20:47.145Z,99.99
2017-09-17T02:21:47.153Z,99.99
2017-09-17T02:22:47.108Z,99.99
2017-09-17T02:23:47.154Z,99.99
2017-09-17T02:24:47.088Z,99.99
2017-09-17T02:25:47.158Z,99.99
2017-09-17T02:26:47.154Z,99.99
2017-09-17T02:27:47.120Z,99.99
2017-09-17T02:28:47.176Z,99.99
2017-09-17T02:29:47.156Z,99.99
2017-09-17T02:30:47.156Z,99.99
2017-09-17T02:31:47.125Z,99.99
2017-09-17T02:32:47.092Z,99.99
2017-09-17T02:33:47.125Z,99.99
2017-09-17T02:34:47.169Z,99.99
2017-09-17T02:35:47.125Z,99.99
2017-09-17T02:36:47.154Z,99.99
2017-09-17T02:37:47.207Z,99.99
2017-09-17T02:38:47.135Z,99.99
2017-09-17T02:39:47.116Z,99.99
2017-09-17T02:40:47.127Z,99.99
2017-09-17T02:41:47.142Z,99.99
2017-09-17T02:42:47.174Z,99.99
2017-09-17T02:43:47.146Z,99.99
2017-09-17T02:44:47.115Z,99.99
2017-09-17T02:45:47.114Z,99.99
2017-09-17T02:46:47.170Z,99.99
2017-09-17T02:47:47.210Z,99.99
2017-09-17T02:48:47.240Z,99.99
2017-09-17T02:49:47.211Z,99.99
2017-09-17T02:50:47.195Z,99.99
2017-09-17T02:51:47.219Z,99.99
2017-09-17T02:52:47.169Z,99.99
2017-09-17T02:53:47.184Z,99.99
2017-09-17T02:54:47.151Z,99.99
2017-09-17T02:55:47.172Z,99.99
2017-09-17T02:56:47.120Z,99.99
2017-09-17T02:57:47.215Z,99.99
2017-09-17T02:58:47.118Z,99.99
2017-09-17T02:59:47.200Z,99.99
2017-09-17T03:00:47.215Z,99.99
2017-09-17T03:01:47.181Z,99.99
2017-09-17T03:02:47.174Z,99.99
2017-09-17T03:03:47.172Z,99.99
2017-09-17T03:04:47.248Z,99.99
2017-09-17T03:05:47.223Z,99.99
2017-09-17T03:06:47.129Z,99.99
2017-09-17T03:07:47.131Z,99.99
2017-09-17T03:08:47.180Z,99.99
2017-09-17T03:09:47.176Z,99.99
2017-09-17T03:10:47.179Z,99.99
2017-09-17T03:11:47.180Z,99.99
2017-09-17T03:12:47.180Z,99.99
2017-09-17T03:13:47.187Z,99.99
2017-09-17T03:14:47.234Z,99.99
2017-09-17T03:15:47.179Z,99.99
2017-09-17T03:16:47.187Z,99.99
2017-09-17T03:17:47.188Z,99.99
2017-09-17T03:18:47.183Z,99.99
2017-09-17T03:19:47.226Z,99.99
2017-09-17T03:20:47.166Z,99.99
2017-09-17T03:21:47.182Z,99.99
2017-09-17T03:22:47.233Z,99.99
2017-09-17T03:23:47.184Z,99.99
2017-09-17T03:24:47.185Z,99.99
2017-09-17T03:25:47.202Z,99.99
2017-09-17T03:26:47.197Z,99.99
2017-09-17T03:27:47.182Z,99.99
2017-09-17T03:28:47.135Z,99.99
2017-09-17T03:29:47.161Z,99.99
2017-09-17T03:30:47.204Z,99.99
2017-09-17T03:31:47.190Z,99.99
2017-09-17T03:32:47.199Z,99.99
2017-09-17T03:33:47.206Z,99.99
2017-09-17T03:34:47.163Z,99.99
2017-09-17T03:35:47.206Z,99.99
2017-09-17T03:36:47.211Z,99.99
2017-09-17T03:37:47.165Z,99.99
2017-09-17T03:38:47.236Z,99.99
2017-09-17T03:39:47.145Z,99.99
2017-09-17T03:40:47.217Z,99.99
2017-09-17T03:41:47.172Z,99.99
2017-09-17T03:42:47.204Z,99.99
2017-09-17T03:43:47.173Z,99.99
2017-09-17T03:44:47.245Z,99.99
2017-09-17T03:45:47.183Z,99.99
2017-09-17T03:46:47.201Z,99.99
2017-09-17T03:47:47.248Z,99.99
2017-09-17T03:48:47.230Z,99.99
2017-09-17T03:49:47.345Z,99.99
2017-09-17T03:50:47.204Z,99.99
2017-09-17T03:51:47.253Z,99.99
2017-09-17T03:52:47.205Z,99.99
2017-09-17T03:53:47.160Z,99.99
2017-09-17T03:54:47.257Z,99.99
2017-09-17T03:55:47.158Z,99.99
2017-09-17T03:56:47.253Z,99.99
2017-09-17T03:57:47.236Z,99.99
2017-09-17T03:58:47.208Z,99.99
2017-09-17T03:59:47.189Z,99.99
2017-09-17T04:00:47.210Z,99.99
2017-09-17T04:01:47.256Z,99.99
2017-09-17T04:02:47.368Z,99.99
2017-09-17T04:03:47.214Z,99.99
2017-09-17T04:04:47.212Z,99.99
2017-09-17T04:05:47.187Z,99.99
2017-09-17T04:06:47.176Z,99.99
2017-09-17T04:07:47.252Z,99.99
2017-09-17T04:08:47.251Z,99.99
2017-09-17T04:09:47.223Z,99.99
2017-09-17T04:10:47.230Z,99.99
2017-09-17T04:11:47.225Z,99.99
2017-09-17T04:12:47.224Z,99.99
2017-09-17T04:13:47.261Z,99.99
2017-09-17T04:14:47.217Z,99.99
2017-09-17T04:15:47.343Z,99.99
2017-09-17T04:16:47.186Z,99.99
2017-09-17T04:17:47.191Z,99.99
2017-09-17T04:18:47.161Z,99.99
2017-09-17T04:19:47.157Z,99.99
2017-09-17T04:20:47.159Z,99.99
2017-09-17T04:21:47.160Z,99.99
2017-09-17T04:22:47.191Z,99.99
2017-09-17T04:23:47.192Z,99.99
2017-09-17T04:24:47.271Z,99.99
2017-09-17T04:25:47.281Z,99.99
2017-09-17T04:26:47.228Z,99.99
2017-09-17T04:27:47.277Z,99.99
2017-09-17T04:28:47.274Z,99.99
2017-09-17T04:29:47.181Z,99.99
2017-09-17T04:30:47.233Z,99.99
2017-09-17T04:31:47.236Z,99.99
2017-09-17T04:32:47.278Z,99.99
2017-09-17T04:33:47.248Z,99.99
2017-09-17T04:34:47.249Z,99.99
2017-09-17T04:35:47.278Z,99.99
2017-09-17T04:36:47.229Z,99.99
2017-09-17T04:37:47.242Z,99.99
2017-09-17T04:38:47.225Z,99.99
2017-09-17T04:39:47.234Z,99.99
2017-09-17T04:40:47.214Z,99.99
2017-09-17T04:41:47.305Z,99.99
2017-09-17T04:42:47.232Z,99.99
2017-09-17T04:43:47.281Z,99.99
2017-09-17T04:44:47.282Z,99.99
2017-09-17T04:45:47.209Z,99.99
2017-09-17T04:46:47.195Z,99.99
2017-09-17T04:47:47.231Z,99.99
2017-09-17T04:48:47.233Z,99.99
2017-09-17T04:49:47.229Z,99.99
2017-09-17T04:50:47.210Z,99.99
2017-09-17T04:51:47.231Z,99.99
2017-09-17T04:52:47.183Z,99.99
2017-09-17T04:53:47.193Z,99.99
2017-09-17T04:54:47.209Z,99.99
2017-09-17T04:55:47.315Z,99.99
2017-09-17T04:56:47.323Z,99.99
2017-09-17T04:57:47.259Z,99.99
2017-09-17T04:58:47.194Z,99.99
2017-09-17T04:59:47.289Z,99.99
2017-09-17T05:00:47.288Z,99.99
2017-09-17T05:01:47.228Z,99.99
2017-09-17T05:02:47.319Z,99.99
2017-09-17T05:03:47.292Z,99.99
2017-09-17T05:04:47.409Z,99.99
2017-09-17T05:05:47.200Z,99.99
2017-09-17T05:06:47.299Z,99.99
2017-09-17T05:07:47.321Z,99.99
2017-09-17T05:08:47.300Z,99.99
2017-09-17T05:09:47.249Z,99.99
2017-09-17T05:10:47.297Z,99.99
2017-09-17T05:11:47.293Z,99.99
2017-09-17T05:12:47.233Z,99.99
2017-09-17T05:13:47.253Z,99.99
2017-09-17T05:14:47.224Z,99.99
2017-09-17T05:15:47.201Z,99.99
2017-09-17T05:16:47.248Z,99.99
2017-09-17T05:17:47.282Z,99.99
2017-09-17T05:18:47.205Z,99.99
2017-09-17T05:19:47.202Z,99.99
2017-09-17T05:20:47.303Z,99.99
2017-09-17T05:21:47.230Z,99.99
2017-09-17T05:22:47.206Z,99.99
2017-09-17T05:23:47.227Z,99.99
2017-09-17T05:24:47.283Z,99.99
2017-09-17T05:25:47.199Z,99.99
2017-09-17T05:26:47.256Z,99.99
2017-09-17T05:27:47.256Z,99.99
2017-09-17T05:28:47.226Z,99.99
2017-09-17T05:29:47.232Z,99.99
2017-09-17T05:30:47.226Z,99.99
2017-09-17T05:31:47.261Z,99.99
2017-09-17T05:32:47.228Z,99.99
2017-09-17T05:33:47.225Z,99.99
2017-09-17T05:34:47.217Z,99.99
2017-09-17T05:35:47.268Z,99.99
2017-09-17T05:36:47.270Z,99.99
2017-09-17T05:37:47.265Z,99.99
2017-09-17T05:38:47.371Z,99.99
2017-09-17T05:39:47.316Z,99.99
2017-09-17T05:40:47.315Z,99.99
2017-09-17T05:41:47.312Z,99.99
2017-09-17T05:42:47.318Z,99.99
2017-09-17T05:43:47.279Z,99.99
2017-09-17T05:44:47.319Z,99.99
2017-09-17T05:45:47.344Z,99.99
2017-09-17T05:46:47.254Z,99.99
2017-09-17T05:47:47.253Z,99.99
2017-09-17T05:48:47.275Z,99.99
2017-09-17T05:49:47.278Z,99.99
2017-09-17T05:50:47.270Z,99.99
2017-09-17T05:51:47.314Z,99.99
2017-09-17T05:52:47.224Z,99.99
2017-09-17T05:53:47.276Z,99.99
2017-09-17T05:54:47.250Z,99.99
2017-09-17T05:55:47.323Z,99.99
2017-09-17T05:56:47.299Z,99.99
2017-09-17T05:57:47.225Z,99.99
2017-09-17T05:58:47.330Z,99.99
2017-09-17T05:59:47.260Z,99.99
2017-09-17T06:00:47.260Z,99.99
2017-09-17T06:01:47.281Z,99.99
2017-09-17T06:02:47.318Z,99.99
2017-09-17T06:03:47.329Z,99.99
2017-09-17T06:04:47.335Z,99.99
2017-09-17T06:05:47.287Z,99.99
2017-09-17T06:06:47.278Z,99.99
2017-09-17T06:07:47.285Z,99.99
2017-09-17T06:08:47.294Z,99.99
2017-09-17T06:09:47.264Z,99.99
2017-09-17T06:10:47.280Z,99.99
2017-09-17T06:11:47.341Z,99.99
2017-09-17T06:12:47.287Z,99.99
2017-09-17T06:13:47.294Z,99.99
2017-09-17T06:14:47.298Z,99.99
2017-09-17T06:15:47.253Z,99.99
2017-09-17T06:16:47.291Z,99.99
2017-09-17T06:17:47.261Z,99.99
2017-09-17T06:18:47.225Z,99.99
2017-09-17T06:19:47.230Z,99.99
2017-09-17T06:20:47.231Z,99.99
2017-09-17T06:21:47.269Z,99.99
2017-09-17T06:22:47.303Z,99.99
2017-09-17T06:23:47.325Z,99.99
2017-09-17T06:24:47.271Z,99.99
2017-09-17T06:25:47.293Z,99.99
2017-09-17T06:26:47.254Z,99.99
2017-09-17T06:27:47.297Z,99.99
2017-09-17T06:28:47.275Z,99.99
2017-09-17T06:29:47.343Z,99.99
2017-09-17T06:30:47.308Z,99.99
2017-09-17T06:31:47.344Z,99.99
2017-09-17T06:32:47.336Z,99.99
2017-09-17T06:33:47.294Z,99.99
2017-09-17T06:34:47.263Z,99.99
2017-09-17T06:35:47.294Z,99.99
2017-09-17T06:36:47.295Z,99.99
2017-09-17T06:37:47.296Z,99.99
2017-09-17T06:38:47.301Z,99.99
2017-09-17T06:39:47.240Z,99.99
2017-09-17T06:40:47.302Z,99.99
2017-09-17T06:41:47.297Z,99.99
2017-09-17T06:42:47.241Z,99.99
2017-09-17T06:43:47.266Z,99.99
2017-09-17T06:44:47.300Z,99.99
2017-09-17T06:45:47.268Z,99.99
2017-09-17T06:46:47.267Z,99.99
2017-09-17T06:47:47.305Z,99.99
2017-09-17T06:48:47.243Z,99.99
2017-09-17T06:49:47.271Z,99.99
2017-09-17T06:50:47.245Z,99.99
2017-09-17T06:51:47.271Z,99.99
2017-09-17T06:52:47.305Z,99.99
2017-09-17T06:53:47.310Z,99.99
2017-09-17T06:54:47.221Z,99.99
2017-09-17T06:55:47.272Z,99.99
2017-09-17T06:56:47.260Z,99.99
2017-09-17T06:57:47.203Z,99.99
2017-09-17T06:58:47.303Z,99.99
2017-09-17T06:59:47.227Z,99.99
2017-09-17T07:00:47.248Z,99.99
2017-09-17T07:01:47.276Z,99.99
2017-09-17T07:02:47.273Z,99.99
2017-09-17T07:03:47.230Z,99.99
2017-09-17T07:04:47.314Z,99.99
2017-09-17T07:05:47.279Z,99.99
2017-09-17T07:06:47.310Z,99.99
2017-09-17T07:07:47.286Z,99.99
2017-09-17T07:08:47.317Z,99.99
2017-09-17T07:09:47.325Z,99.99
2017-09-17T07:10:47.321Z,99.99
2017-09-17T07:11:47.252Z,99.99
2017-09-17T07:12:47.315Z,99.99
2017-09-17T07:13:47.315Z,99.99
2017-09-17T07:14:47.265Z,99.99
2017-09-17T07:15:47.300Z,99.99
2017-09-17T07:16:47.327Z,99.99
2017-09-17T07:17:47.270Z,99.99
2017-09-17T07:18:47.267Z,99.99
2017-09-17T07:19:47.291Z,99.99
2017-09-17T07:20:47.268Z,99.99
2017-09-17T07:21:47.306Z,99.99
2017-09-17T07:22:47.337Z,99.99
2017-09-17T07:23:47.320Z,99.99
2017-09-17T07:24:47.275Z,99.99
2017-09-17T07:25:47.404Z,99.99
2017-09-17T07:26:47.278Z,99.99
2017-09-17T07:27:47.381Z,99.99
2017-09-17T07:28:47.378Z,99.99
2017-09-17T07:29:47.277Z,99.99
2017-09-17T07:30:47.379Z,99.99
2017-09-17T07:31:47.274Z,99.99
2017-09-17T07:32:47.312Z,99.99
2017-09-17T07:33:47.352Z,99.99
2017-09-17T07:34:47.368Z,99.99
2017-09-17T07:35:47.376Z,99.99
2017-09-17T07:36:47.343Z,99.99
2017-09-17T07:37:47.369Z,99.67
2017-09-17T07:38:47.300Z,98.34
2017-09-17T07:39:47.379Z,97.42
2017-09-17T07:40:47.286Z,97.18
2017-09-17T07:41:47.333Z,97.55
2017-09-17T07:42:47.314Z,96.36
2017-09-17T07:43:47.281Z,96.45
2017-09-17T07:44:47.367Z,97.10
2017-09-17T07:45:47.286Z,97.10
2017-09-17T07:46:47.342Z,96.74
2017-09-17T07:47:47.349Z,95.42
2017-09-17T07:48:47.323Z,95.37
2017-09-17T07:49:47.294Z,94.04
2017-09-17T07:50:47.393Z,93.10
2017-09-17T07:51:47.390Z,90.55
2017-09-17T07:52:47.346Z,89.16
2017-09-17T07:53:47.327Z,90.26
2017-09-17T07:54:47.344Z,90.26
2017-09-17T07:55:47.505Z,90.50
2017-09-17T07:56:47.397Z,89.32
2017-09-17T07:57:47.329Z,90.05
2017-09-17T07:58:47.396Z,90.26
2017-09-17T07:59:47.311Z,89.29
2017-09-17T08:00:47.401Z,87.45
2017-09-17T08:01:47.400Z,89.45
2017-09-17T08:02:47.358Z,87.32
2017-09-17T08:03:47.330Z,87.82
2017-09-17T08:04:47.401Z,87.59
2017-09-17T08:05:47.396Z,86.36
2017-09-17T08:06:47.300Z,86.25
2017-09-17T08:07:47.401Z,87.32
2017-09-17T08:08:47.345Z,88.50
2017-09-17T08:09:47.377Z,89.37
2017-09-17T08:10:47.355Z,88.71
2017-09-17T08:11:47.354Z,89.35
2017-09-17T08:12:47.303Z,89.03
2017-09-17T08:13:47.404Z,87.64
2017-09-17T08:14:47.319Z,87.40
2017-09-17T08:15:47.408Z,85.32
2017-09-17T08:16:47.539Z,86.04
2017-09-17T08:17:47.390Z,86.57
2017-09-17T08:18:47.309Z,84.89
2017-09-17T08:19:47.365Z,84.44
2017-09-17T08:20:47.402Z,85.48
2017-09-17T08:21:47.410Z,85.00
2017-09-17T08:22:47.411Z,85.40
2017-09-17T08:23:47.361Z,85.21
2017-09-17T08:24:47.391Z,84.76
2017-09-17T08:25:47.417Z,84.92
2017-09-17T08:26:47.312Z,84.79
2017-09-17T08:27:47.363Z,84.81
2017-09-17T08:28:47.345Z,85.11
2017-09-17T08:29:47.328Z,83.49
2017-09-17T08:30:47.354Z,83.38
2017-09-17T08:31:47.348Z,82.56
2017-09-17T08:32:47.367Z,82.16
2017-09-17T08:33:47.423Z,82.53
2017-09-17T08:34:47.416Z,81.71
2017-09-17T08:35:47.336Z,79.68
2017-09-17T08:36:47.420Z,81.71
2017-09-17T08:37:47.418Z,81.71
2017-09-17T08:38:47.401Z,82.77
2017-09-17T08:39:47.419Z,79.63
2017-09-17T08:40:47.379Z,80.68
2017-09-17T08:41:47.378Z,80.47
2017-09-17T08:42:47.373Z,79.94
2017-09-17T08:43:47.414Z,80.23
2017-09-17T08:44:47.377Z,78.99
2017-09-17T08:45:47.373Z,79.49
2017-09-17T08:46:47.322Z,80.76
2017-09-17T08:47:47.468Z,79.02
2017-09-17T08:48:47.429Z,79.13
2017-09-17T08:49:47.357Z,79.94
2017-09-17T08:50:47.354Z,79.28
2017-09-17T08:51:47.381Z,79.73
2017-09-17T08:52:47.375Z,80.94
2017-09-17T08:53:47.382Z,79.41
2017-09-17T08:54:47.330Z,79.86
2017-09-17T08:55:47.420Z,78.05
2017-09-17T08:56:47.321Z,79.25
2017-09-17T08:57:47.387Z,76.23
2017-09-17T08:58:47.452Z,78.47
2017-09-17T08:59:47.421Z,78.97
2017-09-17T09:00:47.419Z,76.86
2017-09-17T09:01:47.362Z,77.36
2017-09-17T09:02:47.362Z,75.55
2017-09-17T09:03:47.363Z,74.99
2017-09-17T09:04:47.382Z,74.24
2017-09-17T09:05:47.332Z,76.57
2017-09-17T09:06:47.344Z,75.78
2017-09-17T09:07:47.369Z,75.57
2017-09-17T09:08:47.416Z,78.15
2017-09-17T09:09:47.355Z,76.89
2017-09-17T09:10:47.335Z,76.18
2017-09-17T09:11:47.386Z,75.44
2017-09-17T09:12:47.384Z,76.62
2017-09-17T09:13:47.334Z,76.60
2017-09-17T09:14:47.394Z,76.07
2017-09-17T09:15:47.464Z,76.78
2017-09-17T09:16:47.440Z,76.97
2017-09-17T09:17:47.401Z,76.75
2017-09-17T09:18:47.398Z,75.84
2017-09-17T09:19:47.421Z,76.70
2017-09-17T09:20:47.398Z,75.37
2017-09-17T09:21:47.499Z,75.18
2017-09-17T09:22:47.447Z,77.07
2017-09-17T09:23:47.474Z,75.49
2017-09-17T09:24:47.446Z,75.26
2017-09-17T09:25:47.402Z,74.63
2017-09-17T09:26:47.353Z,73.82
2017-09-17T09:27:47.378Z,76.83
2017-09-17T09:28:47.445Z,73.14
2017-09-17T09:29:47.349Z,71.00
2017-09-17T09:30:47.401Z,71.26
2017-09-17T09:31:47.477Z,69.90
2017-09-17T09:32:47.477Z,71.67
2017-09-17T09:33:47.385Z,69.62
2017-09-17T09:34:47.517Z,69.70
2017-09-17T09:35:47.450Z,70.17
2017-09-17T09:36:47.388Z,67.98
2017-09-17T09:37:47.350Z,69.36
2017-09-17T09:38:47.452Z,70.32
2017-09-17T09:39:47.453Z,72.28
2017-09-17T09:40:47.393Z,72.41
2017-09-17T09:41:47.410Z,71.52
2017-09-17T09:42:47.453Z,71.60
2017-09-17T09:43:47.365Z,71.89
2017-09-17T09:44:47.359Z,72.56
2017-09-17T09:45:47.372Z,72.83
2017-09-17T09:46:47.352Z,71.86
2017-09-17T09:47:47.412Z,71.44
2017-09-17T09:48:47.345Z,71.21
2017-09-17T09:49:47.435Z,70.71
2017-09-17T09:50:47.409Z,70.01
2017-09-17T09:51:47.377Z,69.85
2017-09-17T09:52:47.414Z,70.53
2017-09-17T09:53:47.352Z,68.37
2017-09-17T09:54:47.413Z,71.18
2017-09-17T09:55:47.401Z,69.90
2017-09-17T09:56:47.380Z,66.87
2017-09-17T09:57:47.602Z,66.71
2017-09-17T09:58:47.396Z,67.00
2017-09-17T09:59:47.466Z,67.93
2017-09-17T10:00:47.422Z,67.85
2017-09-17T10:01:47.574Z,67.08
2017-09-17T10:02:47.422Z,68.19
2017-09-17T10:03:47.433Z,69.46
2017-09-17T10:04:47.468Z,65.18
2017-09-17T10:05:47.384Z,66.17
2017-09-17T10:06:47.475Z,66.33
2017-09-17T10:07:47.386Z,66.89
2017-09-17T10:08:47.389Z,66.64
2017-09-17T10:09:47.421Z,67.31
2017-09-17T10:10:47.386Z,65.06
2017-09-17T10:11:47.362Z,63.87
2017-09-17T10:12:47.365Z,63.77
2017-09-17T10:13:47.361Z,64.65
2017-09-17T10:14:47.391Z,63.82
2017-09-17T10:15:47.438Z,63.23
2017-09-17T10:16:47.378Z,63.51
2017-09-17T10:17:47.412Z,65.32
2017-09-17T10:18:47.434Z,64.85
2017-09-17T10:19:47.461Z,66.17
2017-09-17T10:20:47.414Z,65.16
2017-09-17T10:21:47.384Z,64.93
2017-09-17T10:22:47.473Z,63.59
2017-09-17T10:23:47.399Z,63.07
2017-09-17T10:24:47.401Z,62.48
2017-09-17T10:25:47.415Z,59.20
2017-09-17T10:26:47.400Z,59.65
2017-09-17T10:27:47.462Z,55.60
2017-09-17T10:28:47.447Z,56.59
2017-09-17T10:29:47.422Z,56.16
2017-09-17T10:30:47.487Z,59.43
2017-09-17T10:31:47.440Z,59.17
2017-09-17T10:32:47.420Z,58.59
2017-09-17T10:33:47.437Z,60.01
2017-09-17T10:34:47.494Z,57.48
2017-09-17T10:35:47.379Z,59.07
2017-09-17T10:36:47.404Z,58.87
2017-09-17T10:37:47.496Z,57.10
2017-09-17T10:38:47.400Z,60.25
2017-09-17T10:39:47.437Z,58.33
2017-09-17T10:40:47.413Z,59.12
2017-09-17T10:41:47.439Z,58.20
2017-09-17T10:42:47.382Z,58.61
2017-09-17T10:43:47.408Z,54.28
2017-09-17T10:44:47.382Z,55.02
2017-09-17T10:45:47.493Z,56.18
2017-09-17T10:46:47.415Z,57.36
2017-09-17T10:47:47.473Z,56.08
2017-09-17T10:48:47.469Z,62.74
2017-09-17T10:49:47.455Z,57.30
2017-09-17T10:50:47.395Z,57.36
2017-09-17T10:51:47.458Z,56.29
2017-09-17T10:52:47.493Z,54.94
2017-09-17T10:53:47.498Z,53.59
2017-09-17T10:54:47.520Z,53.82
2017-09-17T10:55:47.480Z,53.72
2017-09-17T10:56:47.416Z,54.43
2017-09-17T10:57:47.491Z,53.79
2017-09-17T10:58:47.396Z,53.95
2017-09-17T10:59:47.467Z,56.24
2017-09-17T11:00:47.464Z,53.79
2017-09-17T11:01:47.483Z,52.10
2017-09-17T11:02:47.487Z,55.06
2017-09-17T11:03:47.451Z,52.27
2017-09-17T11:04:47.463Z,54.76
2017-09-17T11:05:47.405Z,52.73
2017-09-17T11:06:47.461Z,55.04
2017-09-17T11:07:47.513Z,54.23
2017-09-17T11:08:47.461Z,50.93
2017-09-17T11:09:47.509Z,51.74
2017-09-17T11:10:47.429Z,50.40
2017-09-17T11:11:47.431Z,49.69
2017-09-17T11:12:47.465Z,48.94
2017-09-17T11:13:47.479Z,50.00
2017-09-17T11:14:47.490Z,47.73
2017-09-17T11:15:47.511Z,48.89
2017-09-17T11:16:47.446Z,51.19
2017-09-17T11:17:47.512Z,52.68
2017-09-17T11:18:47.472Z,51.31
2017-09-17T11:19:47.448Z,51.82
2017-09-17T11:20:47.513Z,51.59
2017-09-17T11:21:47.491Z,53.06
2017-09-17T11:22:47.511Z,52.32
2017-09-17T11:23:47.465Z,53.59
2017-09-17T11:24:47.473Z,55.04
2017-09-17T11:26:47.442Z,56.29
2017-09-17T11:27:47.449Z,56.65
2017-09-17T11:28:47.502Z,58.04
2017-09-17T11:29:47.451Z,60.12
2017-09-17T11:30:47.445Z,53.59
2017-09-17T11:31:47.420Z,56.57
2017-09-17T11:32:47.513Z,55.72
2017-09-17T11:33:47.512Z,58.68
2017-09-17T11:34:47.443Z,58.79
2017-09-17T11:35:47.436Z,57.56
2017-09-17T11:36:47.415Z,52.90
2017-09-17T11:37:47.414Z,52.50
2017-09-17T11:38:47.416Z,47.98
2017-09-17T11:39:47.438Z,47.83
2017-09-17T11:40:47.474Z,46.88
2017-09-17T11:41:47.445Z,48.34
2017-09-17T11:42:47.478Z,48.41
2017-09-17T11:43:47.481Z,47.38
2017-09-17T11:44:47.477Z,50.66
2017-09-17T11:45:47.488Z,49.44
2017-09-17T11:46:47.489Z,51.37
2017-09-17T11:47:47.500Z,49.97
2017-09-17T11:48:47.479Z,49.32
2017-09-17T11:49:47.531Z,52.60
2017-09-17T11:51:47.514Z,50.30
2017-09-17T11:52:47.538Z,53.67
2017-09-17T11:53:47.472Z,50.96
2017-09-17T11:54:47.534Z,49.14
2017-09-17T11:55:47.503Z,50.53
2017-09-17T11:56:47.543Z,50.45
2017-09-17T11:57:47.545Z,48.56
2017-09-17T11:58:47.559Z,50.18
2017-09-17T11:59:47.444Z,52.83
2017-09-17T12:00:47.518Z,52.65
2017-09-17T12:01:47.537Z,51.79
2017-09-17T12:02:47.535Z,55.06
2017-09-17T12:03:47.442Z,53.75
2017-09-17T12:04:47.439Z,54.10
2017-09-17T12:05:47.559Z,54.68
2017-09-17T12:06:47.478Z,55.19
2017-09-17T12:07:47.496Z,54.68
2017-09-17T12:08:47.511Z,56.46
2017-09-17T12:09:47.539Z,55.06
2017-09-17T12:10:47.499Z,54.12
2017-09-17T12:11:47.482Z,54.04
2017-09-17T12:12:47.550Z,55.75
2017-09-17T12:13:47.502Z,55.65
2017-09-17T12:14:47.471Z,55.80
2017-09-17T12:15:47.503Z,57.41
2017-09-17T12:16:47.505Z,55.78
2017-09-17T12:17:47.573Z,57.18
2017-09-17T12:18:47.556Z,57.13
2017-09-17T12:19:47.482Z,55.11
2017-09-17T12:20:47.573Z,56.82
2017-09-17T12:21:47.531Z,55.14
2017-09-17T12:22:47.508Z,53.82
2017-09-17T12:23:47.486Z,55.50
2017-09-17T12:24:47.506Z,57.46
2017-09-17T12:25:47.491Z,56.11
2017-09-17T12:26:47.511Z,55.93
2017-09-17T12:27:47.510Z,57.48
2017-09-17T12:28:47.508Z,60.25
2017-09-17T12:29:47.513Z,58.38
2017-09-17T12:30:47.558Z,54.41
2017-09-17T12:31:47.577Z,52.73
2017-09-17T12:32:47.478Z,56.44
2017-09-17T12:33:47.582Z,55.11
2017-09-17T12:34:47.462Z,54.00
2017-09-17T12:35:47.511Z,54.04
2017-09-17T12:36:47.478Z,55.35
2017-09-17T12:37:47.580Z,53.97
2017-09-17T12:38:47.502Z,55.98
2017-09-17T12:39:47.519Z,55.93
2017-09-17T12:40:47.513Z,51.79
2017-09-17T12:41:47.565Z,51.13
2017-09-17T12:42:47.460Z,52.78
2017-09-17T12:43:47.480Z,53.31
2017-09-17T12:44:47.523Z,56.59
2017-09-17T12:45:47.466Z,49.34
2017-09-17T12:46:47.523Z,51.46
2017-09-17T12:47:47.553Z,48.59
2017-09-17T12:48:47.558Z,50.15
2017-09-17T12:49:47.463Z,51.37
2017-09-17T12:50:47.534Z,51.89
2017-09-17T12:51:47.488Z,52.22
2017-09-17T12:52:47.529Z,55.63
2017-09-17T12:53:47.556Z,55.32
2017-09-17T12:54:47.561Z,55.17